sensor_id;sensor_type;location;lat;lon;timestamp;temperature;humidity
76345;DHT22;65160;50.504;3.666;2023-03-05T00:00:36;5.20;89.68
76345;DHT22;65160;50.504;3.666;2023-03-05T00:03:02;5.20;89.69
76345;DHT22;65160;50.504;3.666;2023-03-05T00:05:28;5.16;89.83
76345;DHT22;65160;50.504;3.666;2023-03-05T00:07:53;5.09;90.09
76345;DHT22;65160;50.504;3.666;2023-03-05T00:10:19;5.06;90.25
76345;DHT22;65160;50.504;3.666;2023-03-05T00:12:44;5.07;90.45
76345;DHT22;65160;50.504;3.666;2023-03-05T00:15:10;5.06;90.53
76345;DHT22;65160;50.504;3.666;2023-03-05T00:17:35;5.03;90.64
76345;DHT22;65160;50.504;3.666;2023-03-05T00:20:01;5.00;90.69
76345;DHT22;65160;50.504;3.666;2023-03-05T00:22:27;4.90;90.63
76345;DHT22;65160;50.504;3.666;2023-03-05T00:24:52;4.84;90.70
76345;DHT22;65160;50.504;3.666;2023-03-05T00:27:18;4.94;90.73
76345;DHT22;65160;50.504;3.666;2023-03-05T00:29:43;4.97;90.68
76345;DHT22;65160;50.504;3.666;2023-03-05T00:32:09;4.99;90.33
76345;DHT22;65160;50.504;3.666;2023-03-05T00:34:34;4.76;90.22
76345;DHT22;65160;50.504;3.666;2023-03-05T00:37:01;4.61;90.31
76345;DHT22;65160;50.504;3.666;2023-03-05T00:39:26;4.48;90.51
76345;DHT22;65160;50.504;3.666;2023-03-05T00:41:52;4.35;90.73
76345;DHT22;65160;50.504;3.666;2023-03-05T00:44:18;4.22;90.90
76345;DHT22;65160;50.504;3.666;2023-03-05T00:46:43;4.17;91.13
76345;DHT22;65160;50.504;3.666;2023-03-05T00:49:09;4.08;91.40
76345;DHT22;65160;50.504;3.666;2023-03-05T00:51:34;4.07;91.53
76345;DHT22;65160;50.504;3.666;2023-03-05T00:54:00;3.97;91.51
76345;DHT22;65160;50.504;3.666;2023-03-05T00:56:25;3.93;91.52
76345;DHT22;65160;50.504;3.666;2023-03-05T00:58:51;3.87;91.57
76345;DHT22;65160;50.504;3.666;2023-03-05T01:01:17;3.82;91.57
76345;DHT22;65160;50.504;3.666;2023-03-05T01:03:43;3.83;91.69
76345;DHT22;65160;50.504;3.666;2023-03-05T01:06:11;3.82;91.80
76345;DHT22;65160;50.504;3.666;2023-03-05T01:08:37;3.86;91.90
76345;DHT22;65160;50.504;3.666;2023-03-05T01:11:04;3.89;92.05
76345;DHT22;65160;50.504;3.666;2023-03-05T01:13:29;3.98;92.14
76345;DHT22;65160;50.504;3.666;2023-03-05T01:15:55;4.00;92.12
76345;DHT22;65160;50.504;3.666;2023-03-05T01:18:20;3.98;92.01
76345;DHT22;65160;50.504;3.666;2023-03-05T01:20:46;4.00;92.02
76345;DHT22;65160;50.504;3.666;2023-03-05T01:23:12;3.97;91.98
76345;DHT22;65160;50.504;3.666;2023-03-05T01:25:38;3.97;92.01
76345;DHT22;65160;50.504;3.666;2023-03-05T01:28:04;3.90;91.97
76345;DHT22;65160;50.504;3.666;2023-03-05T01:30:30;3.90;91.96
76345;DHT22;65160;50.504;3.666;2023-03-05T01:32:55;3.85;91.88
76345;DHT22;65160;50.504;3.666;2023-03-05T01:35:23;3.82;91.92
76345;DHT22;65160;50.504;3.666;2023-03-05T01:37:50;3.82;91.80
76345;DHT22;65160;50.504;3.666;2023-03-05T01:40:23;3.85;91.90
76345;DHT22;65160;50.504;3.666;2023-03-05T01:42:57;3.86;91.95
76345;DHT22;65160;50.504;3.666;2023-03-05T01:45:23;3.83;91.76
76345;DHT22;65160;50.504;3.666;2023-03-05T01:47:50;3.79;91.72
76345;DHT22;65160;50.504;3.666;2023-03-05T01:50:20;3.82;91.79
76345;DHT22;65160;50.504;3.666;2023-03-05T01:52:56;3.86;91.79
76345;DHT22;65160;50.504;3.666;2023-03-05T01:55:24;3.87;91.87
76345;DHT22;65160;50.504;3.666;2023-03-05T01:58:32;3.90;91.73
76345;DHT22;65160;50.504;3.666;2023-03-05T02:00:43;3.86;91.67
76345;DHT22;65160;50.504;3.666;2023-03-05T02:03:11;3.90;91.60
76345;DHT22;65160;50.504;3.666;2023-03-05T02:05:38;3.93;91.61
76345;DHT22;65160;50.504;3.666;2023-03-05T02:08:11;3.97;91.62
76345;DHT22;65160;50.504;3.666;2023-03-05T02:10:39;4.01;91.64
76345;DHT22;65160;50.504;3.666;2023-03-05T02:13:09;4.04;91.67
76345;DHT22;65160;50.504;3.666;2023-03-05T02:15:35;4.16;91.68
76345;DHT22;65160;50.504;3.666;2023-03-05T02:18:02;4.18;91.65
76345;DHT22;65160;50.504;3.666;2023-03-05T02:20:30;4.21;91.68
76345;DHT22;65160;50.504;3.666;2023-03-05T02:22:56;4.22;91.70
76345;DHT22;65160;50.504;3.666;2023-03-05T02:25:24;4.30;91.71
76345;DHT22;65160;50.504;3.666;2023-03-05T02:28:04;4.35;91.52
76345;DHT22;65160;50.504;3.666;2023-03-05T02:30:31;4.38;91.52
76345;DHT22;65160;50.504;3.666;2023-03-05T02:32:57;4.46;91.12
76345;DHT22;65160;50.504;3.666;2023-03-05T02:35:23;4.34;91.27
76345;DHT22;65160;50.504;3.666;2023-03-05T02:37:49;4.25;91.59
76345;DHT22;65160;50.504;3.666;2023-03-05T02:40:15;4.22;91.93
76345;DHT22;65160;50.504;3.666;2023-03-05T02:42:41;4.20;92.27
76345;DHT22;65160;50.504;3.666;2023-03-05T02:45:08;4.25;92.44
76345;DHT22;65160;50.504;3.666;2023-03-05T02:47:34;4.20;92.59
76345;DHT22;65160;50.504;3.666;2023-03-05T02:50:00;4.22;92.74
76345;DHT22;65160;50.504;3.666;2023-03-05T02:52:27;4.27;92.82
76345;DHT22;65160;50.504;3.666;2023-03-05T02:54:53;4.34;92.88
76345;DHT22;65160;50.504;3.666;2023-03-05T02:57:18;4.35;92.84
76345;DHT22;65160;50.504;3.666;2023-03-05T02:59:45;4.33;92.80
76345;DHT22;65160;50.504;3.666;2023-03-05T03:02:11;4.45;92.75
76345;DHT22;65160;50.504;3.666;2023-03-05T03:04:36;4.44;92.65
76345;DHT22;65160;50.504;3.666;2023-03-05T03:07:02;4.46;92.71
76345;DHT22;65160;50.504;3.666;2023-03-05T03:09:28;4.45;92.55
76345;DHT22;65160;50.504;3.666;2023-03-05T03:11:53;4.48;92.52
76345;DHT22;65160;50.504;3.666;2023-03-05T03:14:19;4.45;92.53
76345;DHT22;65160;50.504;3.666;2023-03-05T03:16:45;4.44;92.52
76345;DHT22;65160;50.504;3.666;2023-03-05T03:19:11;4.42;92.47
76345;DHT22;65160;50.504;3.666;2023-03-05T03:21:36;4.40;92.54
76345;DHT22;65160;50.504;3.666;2023-03-05T03:24:02;4.42;92.54
76345;DHT22;65160;50.504;3.666;2023-03-05T03:26:27;4.37;92.42
76345;DHT22;65160;50.504;3.666;2023-03-05T03:28:53;4.35;92.48
76345;DHT22;65160;50.504;3.666;2023-03-05T03:31:18;4.37;92.35
76345;DHT22;65160;50.504;3.666;2023-03-05T03:33:44;4.33;92.34
76345;DHT22;65160;50.504;3.666;2023-03-05T03:36:10;4.35;92.21
76345;DHT22;65160;50.504;3.666;2023-03-05T03:38:36;4.28;92.03
76345;DHT22;65160;50.504;3.666;2023-03-05T03:41:01;4.20;92.03
76345;DHT22;65160;50.504;3.666;2023-03-05T03:43:29;4.14;92.06
76345;DHT22;65160;50.504;3.666;2023-03-05T03:45:54;4.14;92.09
76345;DHT22;65160;50.504;3.666;2023-03-05T03:48:20;4.10;92.15
76345;DHT22;65160;50.504;3.666;2023-03-05T03:50:45;4.08;92.18
76345;DHT22;65160;50.504;3.666;2023-03-05T03:53:11;4.06;92.32
76345;DHT22;65160;50.504;3.666;2023-03-05T03:55:39;4.07;92.34
76345;DHT22;65160;50.504;3.666;2023-03-05T03:58:07;4.03;92.40
76345;DHT22;65160;50.504;3.666;2023-03-05T04:00:32;4.00;92.47
76345;DHT22;65160;50.504;3.666;2023-03-05T04:02:58;3.96;92.40
76345;DHT22;65160;50.504;3.666;2023-03-05T04:05:23;3.90;92.43
76345;DHT22;65160;50.504;3.666;2023-03-05T04:07:49;3.80;92.44
76345;DHT22;65160;50.504;3.666;2023-03-05T04:10:16;3.80;92.52
76345;DHT22;65160;50.504;3.666;2023-03-05T04:12:41;3.82;92.64
76345;DHT22;65160;50.504;3.666;2023-03-05T04:15:09;3.93;92.71
76345;DHT22;65160;50.504;3.666;2023-03-05T04:17:34;3.91;92.49
76345;DHT22;65160;50.504;3.666;2023-03-05T04:20:00;3.93;92.55
76345;DHT22;65160;50.504;3.666;2023-03-05T04:22:25;3.89;92.67
76345;DHT22;65160;50.504;3.666;2023-03-05T04:24:51;3.91;92.67
76345;DHT22;65160;50.504;3.666;2023-03-05T04:27:16;3.90;92.64
76345;DHT22;65160;50.504;3.666;2023-03-05T04:29:42;3.86;92.58
76345;DHT22;65160;50.504;3.666;2023-03-05T04:32:08;3.85;92.58
76345;DHT22;65160;50.504;3.666;2023-03-05T04:34:33;3.86;92.58
76345;DHT22;65160;50.504;3.666;2023-03-05T04:37:00;3.85;92.59
76345;DHT22;65160;50.504;3.666;2023-03-05T04:39:26;3.83;92.57
76345;DHT22;65160;50.504;3.666;2023-03-05T04:41:51;3.83;92.52
76345;DHT22;65160;50.504;3.666;2023-03-05T04:44:17;3.85;92.59
76345;DHT22;65160;50.504;3.666;2023-03-05T04:46:43;3.82;92.59
76345;DHT22;65160;50.504;3.666;2023-03-05T04:49:09;3.86;92.68
76345;DHT22;65160;50.504;3.666;2023-03-05T04:51:34;3.87;92.68
76345;DHT22;65160;50.504;3.666;2023-03-05T04:54:00;3.89;92.64
76345;DHT22;65160;50.504;3.666;2023-03-05T04:56:25;3.89;92.62
76345;DHT22;65160;50.504;3.666;2023-03-05T04:58:51;3.85;92.62
76345;DHT22;65160;50.504;3.666;2023-03-05T05:01:16;3.85;92.62
76345;DHT22;65160;50.504;3.666;2023-03-05T05:03:42;3.85;92.68
76345;DHT22;65160;50.504;3.666;2023-03-05T05:06:07;3.85;92.66
76345;DHT22;65160;50.504;3.666;2023-03-05T05:08:33;3.86;92.74
76345;DHT22;65160;50.504;3.666;2023-03-05T05:11:03;3.85;92.66
76345;DHT22;65160;50.504;3.666;2023-03-05T05:13:30;3.89;92.72
76345;DHT22;65160;50.504;3.666;2023-03-05T05:15:57;3.89;92.78
76345;DHT22;65160;50.504;3.666;2023-03-05T05:18:23;3.93;92.81
76345;DHT22;65160;50.504;3.666;2023-03-05T05:20:49;4.00;92.76
76345;DHT22;65160;50.504;3.666;2023-03-05T05:23:14;4.07;92.56
76345;DHT22;65160;50.504;3.666;2023-03-05T05:25:40;4.07;92.43
76345;DHT22;65160;50.504;3.666;2023-03-05T05:28:08;4.04;92.29
76345;DHT22;65160;50.504;3.666;2023-03-05T05:30:33;4.06;92.28
76345;DHT22;65160;50.504;3.666;2023-03-05T05:32:59;4.06;92.08
76345;DHT22;65160;50.504;3.666;2023-03-05T05:35:24;4.04;92.15
76345;DHT22;65160;50.504;3.666;2023-03-05T05:37:50;4.04;92.11
76345;DHT22;65160;50.504;3.666;2023-03-05T05:40:16;4.01;92.10
76345;DHT22;65160;50.504;3.666;2023-03-05T05:42:41;4.01;92.13
76345;DHT22;65160;50.504;3.666;2023-03-05T05:45:07;3.97;92.14
76345;DHT22;65160;50.504;3.666;2023-03-05T05:47:33;3.94;92.20
76345;DHT22;65160;50.504;3.666;2023-03-05T05:49:59;3.94;92.33
76345;DHT22;65160;50.504;3.666;2023-03-05T05:52:24;3.94;92.38
76345;DHT22;65160;50.504;3.666;2023-03-05T05:54:50;3.91;92.44
76345;DHT22;65160;50.504;3.666;2023-03-05T05:57:15;3.93;92.55
76345;DHT22;65160;50.504;3.666;2023-03-05T05:59:40;4.01;92.46
76345;DHT22;65160;50.504;3.666;2023-03-05T06:02:06;4.08;92.32
76345;DHT22;65160;50.504;3.666;2023-03-05T06:04:33;4.06;92.32
76345;DHT22;65160;50.504;3.666;2023-03-05T06:06:59;4.01;92.31
76345;DHT22;65160;50.504;3.666;2023-03-05T06:09:25;3.98;92.30
76345;DHT22;65160;50.504;3.666;2023-03-05T06:11:51;3.94;92.32
76345;DHT22;65160;50.504;3.666;2023-03-05T06:14:16;3.90;92.34
76345;DHT22;65160;50.504;3.666;2023-03-05T06:16:42;3.96;92.36
76345;DHT22;65160;50.504;3.666;2023-03-05T06:19:11;3.93;92.30
76345;DHT22;65160;50.504;3.666;2023-03-05T06:21:36;3.91;92.39
76345;DHT22;65160;50.504;3.666;2023-03-05T06:24:02;3.89;92.43
76345;DHT22;65160;50.504;3.666;2023-03-05T06:26:28;3.91;92.53
76345;DHT22;65160;50.504;3.666;2023-03-05T06:28:53;3.93;92.51
76345;DHT22;65160;50.504;3.666;2023-03-05T06:31:22;3.96;92.56
76345;DHT22;65160;50.504;3.666;2023-03-05T06:33:48;4.00;92.47
76345;DHT22;65160;50.504;3.666;2023-03-05T06:36:16;4.01;92.37
76345;DHT22;65160;50.504;3.666;2023-03-05T06:38:42;4.00;92.33
76345;DHT22;65160;50.504;3.666;2023-03-05T06:41:10;4.08;92.21
76345;DHT22;65160;50.504;3.666;2023-03-05T06:43:38;4.17;92.17
76345;DHT22;65160;50.504;3.666;2023-03-05T06:46:12;4.25;91.70
76345;DHT22;65160;50.504;3.666;2023-03-05T06:48:39;4.18;91.48
76345;DHT22;65160;50.504;3.666;2023-03-05T06:51:14;4.16;91.62
76345;DHT22;65160;50.504;3.666;2023-03-05T06:53:41;4.10;91.73
76345;DHT22;65160;50.504;3.666;2023-03-05T06:56:06;4.14;91.90
76345;DHT22;65160;50.504;3.666;2023-03-05T06:58:32;4.27;91.73
76345;DHT22;65160;50.504;3.666;2023-03-05T07:00:58;4.38;91.54
76345;DHT22;65160;50.504;3.666;2023-03-05T07:03:23;4.33;91.41
76345;DHT22;65160;50.504;3.666;2023-03-05T07:05:48;4.30;91.70
76345;DHT22;65160;50.504;3.666;2023-03-05T07:08:14;4.28;91.83
76345;DHT22;65160;50.504;3.666;2023-03-05T07:10:41;4.31;91.94
76345;DHT22;65160;50.504;3.666;2023-03-05T07:13:08;4.38;92.08
76345;DHT22;65160;50.504;3.666;2023-03-05T07:15:36;4.41;92.00
76345;DHT22;65160;50.504;3.666;2023-03-05T07:18:02;4.42;91.81
76345;DHT22;65160;50.504;3.666;2023-03-05T07:20:28;4.54;91.76
76345;DHT22;65160;50.504;3.666;2023-03-05T07:22:53;4.52;91.47
76345;DHT22;65160;50.504;3.666;2023-03-05T07:25:19;4.59;91.24
76345;DHT22;65160;50.504;3.666;2023-03-05T07:27:47;4.58;91.31
76345;DHT22;65160;50.504;3.666;2023-03-05T07:30:13;4.62;91.40
76345;DHT22;65160;50.504;3.666;2023-03-05T07:32:38;4.59;91.31
76345;DHT22;65160;50.504;3.666;2023-03-05T07:35:04;4.68;91.39
76345;DHT22;65160;50.504;3.666;2023-03-05T07:37:30;4.61;91.45
76345;DHT22;65160;50.504;3.666;2023-03-05T07:39:55;4.55;91.50
76345;DHT22;65160;50.504;3.666;2023-03-05T07:42:21;4.54;91.38
76345;DHT22;65160;50.504;3.666;2023-03-05T07:44:46;4.59;91.47
76345;DHT22;65160;50.504;3.666;2023-03-05T07:47:12;4.63;91.34
76345;DHT22;65160;50.504;3.666;2023-03-05T07:49:37;4.68;91.31
76345;DHT22;65160;50.504;3.666;2023-03-05T07:52:06;4.73;91.03
76345;DHT22;65160;50.504;3.666;2023-03-05T07:54:32;4.79;91.11
76345;DHT22;65160;50.504;3.666;2023-03-05T07:57:02;4.84;90.63
76345;DHT22;65160;50.504;3.666;2023-03-05T07:59:28;4.87;90.51
76345;DHT22;65160;50.504;3.666;2023-03-05T08:01:54;4.93;90.62
76345;DHT22;65160;50.504;3.666;2023-03-05T08:04:19;4.89;90.20
76345;DHT22;65160;50.504;3.666;2023-03-05T08:06:45;4.87;90.46
76345;DHT22;65160;50.504;3.666;2023-03-05T08:09:11;4.93;90.46
76345;DHT22;65160;50.504;3.666;2023-03-05T08:11:38;4.97;90.54
76345;DHT22;65160;50.504;3.666;2023-03-05T08:14:04;5.03;90.60
76345;DHT22;65160;50.504;3.666;2023-03-05T08:16:29;5.09;90.33
76345;DHT22;65160;50.504;3.666;2023-03-05T08:18:56;4.93;90.00
76345;DHT22;65160;50.504;3.666;2023-03-05T08:21:27;5.00;90.36
76345;DHT22;65160;50.504;3.666;2023-03-05T08:23:54;4.97;90.37
76345;DHT22;65160;50.504;3.666;2023-03-05T08:26:22;4.93;90.44
76345;DHT22;65160;50.504;3.666;2023-03-05T08:28:48;4.96;90.50
76345;DHT22;65160;50.504;3.666;2023-03-05T08:31:15;4.90;90.02
76345;DHT22;65160;50.504;3.666;2023-03-05T08:33:41;4.94;90.22
76345;DHT22;65160;50.504;3.666;2023-03-05T08:36:08;4.87;90.25
76345;DHT22;65160;50.504;3.666;2023-03-05T08:38:34;4.93;90.22
76345;DHT22;65160;50.504;3.666;2023-03-05T08:41:00;4.86;90.10
76345;DHT22;65160;50.504;3.666;2023-03-05T08:43:25;4.86;89.94
76345;DHT22;65160;50.504;3.666;2023-03-05T08:45:51;5.00;90.04
76345;DHT22;65160;50.504;3.666;2023-03-05T08:48:19;4.94;90.15
76345;DHT22;65160;50.504;3.666;2023-03-05T08:50:44;4.97;89.87
76345;DHT22;65160;50.504;3.666;2023-03-05T08:53:10;5.01;90.14
76345;DHT22;65160;50.504;3.666;2023-03-05T08:55:36;5.09;90.23
76345;DHT22;65160;50.504;3.666;2023-03-05T08:58:02;5.06;90.29
76345;DHT22;65160;50.504;3.666;2023-03-05T09:00:27;5.10;90.20
76345;DHT22;65160;50.504;3.666;2023-03-05T09:02:53;5.13;89.76
76345;DHT22;65160;50.504;3.666;2023-03-05T09:05:18;5.09;89.76
76345;DHT22;65160;50.504;3.666;2023-03-05T09:07:44;5.17;89.79
76345;DHT22;65160;50.504;3.666;2023-03-05T09:10:11;5.27;89.71
76345;DHT22;65160;50.504;3.666;2023-03-05T09:12:39;5.30;89.72
76345;DHT22;65160;50.504;3.666;2023-03-05T09:15:06;5.17;89.52
76345;DHT22;65160;50.504;3.666;2023-03-05T09:17:36;5.09;90.09
76345;DHT22;65160;50.504;3.666;2023-03-05T09:20:04;4.97;90.49
76345;DHT22;65160;50.504;3.666;2023-03-05T09:22:30;4.76;90.84
76345;DHT22;65160;50.504;3.666;2023-03-05T09:24:55;4.75;91.44
76345;DHT22;65160;50.504;3.666;2023-03-05T09:27:21;4.83;91.91
76345;DHT22;65160;50.504;3.666;2023-03-05T09:29:47;4.93;91.96
76345;DHT22;65160;50.504;3.666;2023-03-05T09:32:12;5.07;92.10
76345;DHT22;65160;50.504;3.666;2023-03-05T09:34:38;5.26;91.97
76345;DHT22;65160;50.504;3.666;2023-03-05T09:37:04;5.44;91.67
76345;DHT22;65160;50.504;3.666;2023-03-05T09:39:29;5.58;91.06
76345;DHT22;65160;50.504;3.666;2023-03-05T09:50:27;5.69;85.68
76345;DHT22;65160;50.504;3.666;2023-03-05T09:53:03;5.87;86.77
76345;DHT22;65160;50.504;3.666;2023-03-05T09:55:36;5.90;85.47
76345;DHT22;65160;50.504;3.666;2023-03-05T09:58:32;5.99;85.35
76345;DHT22;65160;50.504;3.666;2023-03-05T10:01:05;6.20;86.40
76345;DHT22;65160;50.504;3.666;2023-03-05T10:06:36;6.48;85.56
76345;DHT22;65160;50.504;3.666;2023-03-05T10:09:13;6.59;83.57
76345;DHT22;65160;50.504;3.666;2023-03-05T10:14:34;6.44;82.02
76345;DHT22;65160;50.504;3.666;2023-03-05T10:26:04;6.34;83.29
76345;DHT22;65160;50.504;3.666;2023-03-05T10:31:29;5.55;85.14
76345;DHT22;65160;50.504;3.666;2023-03-05T10:45:31;5.16;87.46
76345;DHT22;65160;50.504;3.666;2023-03-05T10:53:52;5.52;85.30
76345;DHT22;65160;50.504;3.666;2023-03-05T10:56:23;5.63;85.38
76345;DHT22;65160;50.504;3.666;2023-03-05T10:58:49;5.75;85.31
76345;DHT22;65160;50.504;3.666;2023-03-05T11:06:12;5.99;83.19
76345;DHT22;65160;50.504;3.666;2023-03-05T11:08:37;6.06;82.98
76345;DHT22;65160;50.504;3.666;2023-03-05T11:13:29;6.30;82.30
76345;DHT22;65160;50.504;3.666;2023-03-05T11:16:00;6.22;83.19
76345;DHT22;65160;50.504;3.666;2023-03-05T11:18:26;6.16;83.04
76345;DHT22;65160;50.504;3.666;2023-03-05T11:21:07;6.16;84.77
76345;DHT22;65160;50.504;3.666;2023-03-05T11:23:33;6.17;84.12
76345;DHT22;65160;50.504;3.666;2023-03-05T11:26:20;6.07;84.41
76345;DHT22;65160;50.504;3.666;2023-03-05T11:34:20;5.85;82.07
76345;DHT22;65160;50.504;3.666;2023-03-05T11:39:17;5.79;83.42
76345;DHT22;65160;50.504;3.666;2023-03-05T11:41:47;5.79;83.54
76345;DHT22;65160;50.504;3.666;2023-03-05T11:44:16;5.83;84.96
76345;DHT22;65160;50.504;3.666;2023-03-05T11:46:47;5.85;85.13
76345;DHT22;65160;50.504;3.666;2023-03-05T11:49:19;5.90;84.52
76345;DHT22;65160;50.504;3.666;2023-03-05T11:54:19;5.80;84.00
76345;DHT22;65160;50.504;3.666;2023-03-05T11:56:45;5.85;83.97
76345;DHT22;65160;50.504;3.666;2023-03-05T11:59:23;5.86;84.82
76345;DHT22;65160;50.504;3.666;2023-03-05T12:01:52;5.90;85.28
76345;DHT22;65160;50.504;3.666;2023-03-05T12:04:19;5.96;83.91
76345;DHT22;65160;50.504;3.666;2023-03-05T12:06:49;6.04;83.02
76345;DHT22;65160;50.504;3.666;2023-03-05T12:09:25;6.04;82.90
76345;DHT22;65160;50.504;3.666;2023-03-05T12:11:56;6.07;83.54
76345;DHT22;65160;50.504;3.666;2023-03-05T12:14:40;6.03;83.07
76345;DHT22;65160;50.504;3.666;2023-03-05T12:20:04;5.86;81.75
76345;DHT22;65160;50.504;3.666;2023-03-05T12:22:36;5.82;83.02
76345;DHT22;65160;50.504;3.666;2023-03-05T12:25:51;5.76;82.19
76345;DHT22;65160;50.504;3.666;2023-03-05T12:31:35;5.76;82.58
76345;DHT22;65160;50.504;3.666;2023-03-05T12:34:40;5.76;82.08
76345;DHT22;65160;50.504;3.666;2023-03-05T12:39:49;5.82;79.65
76345;DHT22;65160;50.504;3.666;2023-03-05T12:47:40;6.03;80.57
76345;DHT22;65160;50.504;3.666;2023-03-05T12:52:55;6.00;80.76
76345;DHT22;65160;50.504;3.666;2023-03-05T13:00:51;5.92;80.00
76345;DHT22;65160;50.504;3.666;2023-03-05T13:03:21;5.93;80.33
76345;DHT22;65160;50.504;3.666;2023-03-05T13:05:50;5.99;80.24
76345;DHT22;65160;50.504;3.666;2023-03-05T13:08:23;5.94;81.04
76345;DHT22;65160;50.504;3.666;2023-03-05T13:13:20;6.09;80.36
76345;DHT22;65160;50.504;3.666;2023-03-05T13:15:48;6.00;80.35
76345;DHT22;65160;50.504;3.666;2023-03-05T13:18:22;6.03;80.37
76345;DHT22;65160;50.504;3.666;2023-03-05T13:21:18;6.04;79.17
76345;DHT22;65160;50.504;3.666;2023-03-05T13:23:47;6.04;78.76
76345;DHT22;65160;50.504;3.666;2023-03-05T13:31:26;5.85;78.60
76345;DHT22;65160;50.504;3.666;2023-03-05T13:33:55;5.92;78.82
76345;DHT22;65160;50.504;3.666;2023-03-05T13:36:24;5.93;79.33
76345;DHT22;65160;50.504;3.666;2023-03-05T13:38:50;5.93;78.95
76345;DHT22;65160;50.504;3.666;2023-03-05T13:41:24;5.93;79.67
76345;DHT22;65160;50.504;3.666;2023-03-05T13:43:57;5.99;79.00
76345;DHT22;65160;50.504;3.666;2023-03-05T13:46:32;6.00;79.46
76345;DHT22;65160;50.504;3.666;2023-03-05T13:49:25;5.90;79.50
76345;DHT22;65160;50.504;3.666;2023-03-05T13:51:55;5.89;78.99
76345;DHT22;65160;50.504;3.666;2023-03-05T13:54:22;6.02;79.42
76345;DHT22;65160;50.504;3.666;2023-03-05T13:56:57;5.89;78.17
76345;DHT22;65160;50.504;3.666;2023-03-05T13:59:28;5.86;77.29
76345;DHT22;65160;50.504;3.666;2023-03-05T14:02:03;5.76;78.07
76345;DHT22;65160;50.504;3.666;2023-03-05T14:04:40;5.72;77.87
76345;DHT22;65160;50.504;3.666;2023-03-05T14:09:49;5.92;79.58
76345;DHT22;65160;50.504;3.666;2023-03-05T14:14:57;5.89;79.07
76345;DHT22;65160;50.504;3.666;2023-03-05T14:22:40;5.85;78.81
76345;DHT22;65160;50.504;3.666;2023-03-05T14:27:59;5.87;78.32
76345;DHT22;65160;50.504;3.666;2023-03-05T14:30:24;5.80;77.76
76345;DHT22;65160;50.504;3.666;2023-03-05T14:32:53;5.77;77.36
76345;DHT22;65160;50.504;3.666;2023-03-05T14:35:22;5.82;78.02
76345;DHT22;65160;50.504;3.666;2023-03-05T14:37:50;5.72;77.25
76345;DHT22;65160;50.504;3.666;2023-03-05T14:40:30;5.76;77.17
76345;DHT22;65160;50.504;3.666;2023-03-05T14:43:01;5.77;76.38
76345;DHT22;65160;50.504;3.666;2023-03-05T14:47:56;5.80;78.02
76345;DHT22;65160;50.504;3.666;2023-03-05T14:50:27;5.75;77.36
76345;DHT22;65160;50.504;3.666;2023-03-05T14:53:00;5.79;78.02
76345;DHT22;65160;50.504;3.666;2023-03-05T14:55:29;5.87;78.75
76345;DHT22;65160;50.504;3.666;2023-03-05T14:58:01;5.83;78.91
76345;DHT22;65160;50.504;3.666;2023-03-05T15:00:28;5.82;78.58
76345;DHT22;65160;50.504;3.666;2023-03-05T15:02:54;5.79;78.57
76345;DHT22;65160;50.504;3.666;2023-03-05T15:05:19;5.77;79.07
76345;DHT22;65160;50.504;3.666;2023-03-05T15:07:46;5.70;79.17
76345;DHT22;65160;50.504;3.666;2023-03-05T15:10:22;5.65;79.46
76345;DHT22;65160;50.504;3.666;2023-03-05T15:12:48;5.79;80.09
76345;DHT22;65160;50.504;3.666;2023-03-05T15:15:16;5.83;80.17
76345;DHT22;65160;50.504;3.666;2023-03-05T15:17:44;5.87;79.86
76345;DHT22;65160;50.504;3.666;2023-03-05T15:20:22;5.94;79.27
76345;DHT22;65160;50.504;3.666;2023-03-05T15:22:48;5.90;80.31
76345;DHT22;65160;50.504;3.666;2023-03-05T15:25:15;5.89;80.47
76345;DHT22;65160;50.504;3.666;2023-03-05T15:27:40;5.86;79.54
76345;DHT22;65160;50.504;3.666;2023-03-05T15:30:08;5.82;79.98
76345;DHT22;65160;50.504;3.666;2023-03-05T15:32:37;5.89;80.85
76345;DHT22;65160;50.504;3.666;2023-03-05T15:35:02;5.83;79.81
76345;DHT22;65160;50.504;3.666;2023-03-05T15:37:28;5.80;79.56
76345;DHT22;65160;50.504;3.666;2023-03-05T15:39:53;5.77;79.06
76345;DHT22;65160;50.504;3.666;2023-03-05T15:42:19;5.73;78.91
76345;DHT22;65160;50.504;3.666;2023-03-05T15:44:44;5.72;78.53
76345;DHT22;65160;50.504;3.666;2023-03-05T15:47:10;5.70;78.95
76345;DHT22;65160;50.504;3.666;2023-03-05T15:49:35;5.66;78.69
76345;DHT22;65160;50.504;3.666;2023-03-05T15:52:01;5.70;79.31
76345;DHT22;65160;50.504;3.666;2023-03-05T15:54:27;5.72;78.47
76345;DHT22;65160;50.504;3.666;2023-03-05T15:56:52;5.67;78.10
76345;DHT22;65160;50.504;3.666;2023-03-05T15:59:18;5.62;78.49
76345;DHT22;65160;50.504;3.666;2023-03-05T16:01:49;5.58;78.02
76345;DHT22;65160;50.504;3.666;2023-03-05T16:04:16;5.56;77.89
76345;DHT22;65160;50.504;3.666;2023-03-05T16:06:43;5.59;78.41
76345;DHT22;65160;50.504;3.666;2023-03-05T16:09:10;5.60;77.31
76345;DHT22;65160;50.504;3.666;2023-03-05T16:11:37;5.59;77.25
76345;DHT22;65160;50.504;3.666;2023-03-05T16:14:06;5.59;77.40
76345;DHT22;65160;50.504;3.666;2023-03-05T16:16:34;5.60;77.32
76345;DHT22;65160;50.504;3.666;2023-03-05T16:19:01;5.51;75.53
76345;DHT22;65160;50.504;3.666;2023-03-05T16:21:29;5.54;75.95
76345;DHT22;65160;50.504;3.666;2023-03-05T16:23:55;5.56;76.03
76345;DHT22;65160;50.504;3.666;2023-03-05T16:26:21;5.56;77.45
76345;DHT22;65160;50.504;3.666;2023-03-05T16:28:46;5.56;78.58
76345;DHT22;65160;50.504;3.666;2023-03-05T16:31:12;5.51;76.68
76345;DHT22;65160;50.504;3.666;2023-03-05T16:33:37;5.51;74.49
76345;DHT22;65160;50.504;3.666;2023-03-05T16:36:20;5.51;76.48
76345;DHT22;65160;50.504;3.666;2023-03-05T16:38:51;5.47;75.92
76345;DHT22;65160;50.504;3.666;2023-03-05T16:41:17;5.42;77.18
76345;DHT22;65160;50.504;3.666;2023-03-05T16:43:44;5.47;76.16
76345;DHT22;65160;50.504;3.666;2023-03-05T16:46:11;5.44;74.50
76345;DHT22;65160;50.504;3.666;2023-03-05T16:48:37;5.47;75.37
76345;DHT22;65160;50.504;3.666;2023-03-05T16:51:04;5.44;75.30
76345;DHT22;65160;50.504;3.666;2023-03-05T16:53:30;5.38;76.11
76345;DHT22;65160;50.504;3.666;2023-03-05T16:55:55;5.35;75.82
76345;DHT22;65160;50.504;3.666;2023-03-05T16:58:21;5.39;76.03
76345;DHT22;65160;50.504;3.666;2023-03-05T17:00:47;5.35;75.31
76345;DHT22;65160;50.504;3.666;2023-03-05T17:03:13;5.34;75.41
76345;DHT22;65160;50.504;3.666;2023-03-05T17:05:38;5.31;74.58
76345;DHT22;65160;50.504;3.666;2023-03-05T17:08:04;5.37;74.35
76345;DHT22;65160;50.504;3.666;2023-03-05T17:10:31;5.31;74.61
76345;DHT22;65160;50.504;3.666;2023-03-05T17:12:56;5.31;73.78
76345;DHT22;65160;50.504;3.666;2023-03-05T17:15:22;5.30;75.86
76345;DHT22;65160;50.504;3.666;2023-03-05T17:17:48;5.26;74.01
76345;DHT22;65160;50.504;3.666;2023-03-05T17:20:14;5.24;74.87
76345;DHT22;65160;50.504;3.666;2023-03-05T17:22:40;5.17;74.00
76345;DHT22;65160;50.504;3.666;2023-03-05T17:25:06;5.16;75.73
76345;DHT22;65160;50.504;3.666;2023-03-05T17:27:32;5.14;77.33
76345;DHT22;65160;50.504;3.666;2023-03-05T17:29:58;5.11;76.23
76345;DHT22;65160;50.504;3.666;2023-03-05T17:32:23;5.11;76.65
76345;DHT22;65160;50.504;3.666;2023-03-05T17:34:54;5.09;76.91